Rocky Mount Wilson Airport

About
Name: Rocky Mount Wilson Airport
Identifier:  RWI/KRWI
Local Time:  22. Sep 06:35 EDT
Location
Rocky Mount
  United States

Statistics
Flights per Day:
0 flights
Distance: 3,931km (2,442mi)
Flights delayed:
0% (0 flights per day delayed)
Delay Average: 45 minutes
Current Weather
 17 C (Humidity: 93%)
  3kt (5km/h / 3mph) from 180°
  16km (10 mi.)
 
 METAR KRWI 220953Z AUTO 18003KT 10SM CLR 17/16 A3021 RMK AO2 SLP229 T01720156

Current Delays

Departures
N/A
Arrivals
N/A

Destinations

Top Destinations
Airport Flights
per week
Seats
per week
  Atlantic City (ACY) 0 - 0 0
  Columbus (CLU) 0 - 0 0

Airlines & Planes

Top Airlines
Airline Flights
per Day
Seats
per Day
Ultimate Air Shuttle 0 -
  Flybe Nordic 0 -
Top Plane Types
Model Flights Seats
Dornier 328 0.1/day - 0